KBRY/BRY METAR and TAF weather

Enter ICAO airport designator
Station Type Date Time Source
KBRY METAR 2021/05/14 03:35 UTC NOAA

KBRY 140335Z AUTO 00000KT 10SM CLR 07/05 A3030 RMK AO1


Station Type Date Time Source
KBRY Decoded METAR 2021/05/14 03:35 UTC NOAA

Station name not available
May 13, 2021 - 11:35 PM EDT / 2021.05.14 0335 UTC
Wind: Calm:0
Visibility: 10 mile(s):0
Sky conditions: clear
Temperature: 44 F (7 C)
Dew Point: 41 F (5 C)
Relative Humidity: 87%
Pressure (altimeter): 30.3 in. Hg (1026 hPa)
ob: KBRY 140335Z AUTO 00000KT 10SM CLR 07/05 A3030 RMK AO1
cycle: 3

Station Type Date Time Source
KBRY TAF UTC NOAA

Error!

Example: see airport list